Time;durP1;ratioP1;P1;durP2;ratioP2;P2;SDS_P1;SDS_P2;PMS_P1;PMS_P2;Temp;Humidity;BMP_temperature;BMP_pressure;BME280_temperature;BME280_humidity;BME280_pressure;Samples;Min_cycle;Max_cycle;Signal;HPM_P1;HPM_P2
2022/08/05 00:01:14;;;;;;;;;;;17.10;92.20;;;;;;4980447;28;19913;-73
2022/08/05 00:03:40;;;;;;;;;;;17.20;91.30;;;;;;4981973;28;19921;-74
2022/08/05 00:06:06;;;;;;;;;;;17.20;90.20;;;;;;4975689;28;20007;-73
2022/08/05 00:08:32;;;;;;;;;;;17.10;90.60;;;;;;4977126;28;19936;-74
2022/08/05 00:10:58;;;;;;;;;;;17.20;90.20;;;;;;4978862;28;20458;-73
2022/08/05 00:13:23;;;;;;;;;;;17.20;90.30;;;;;;4993182;28;19917;-73
2022/08/05 00:15:49;;;;;;;;;;;17.10;90.50;;;;;;4982662;28;19937;-74
2022/08/05 00:18:15;;;;;;;;;;;17.10;90.40;;;;;;4979124;28;19925;-73
2022/08/05 00:20:40;;;;;;;;;;;17.10;90.50;;;;;;4980365;28;19914;-74
2022/08/05 00:23:06;;;;;;;;;;;17.00;89.60;;;;;;4983333;28;19913;-73
2022/08/05 00:25:32;;;;;;;;;;;17.10;89.60;;;;;;4978771;28;19980;-74
2022/08/05 00:27:58;;;;;;;;;;;17.10;89.30;;;;;;4976074;28;19941;-73
2022/08/05 00:30:24;;;;;;;;;;;17.00;89.50;;;;;;4981748;28;19989;-73
2022/08/05 00:32:50;;;;;;;;;;;16.90;89.80;;;;;;4973571;28;20412;-73
2022/08/05 00:35:15;;;;;;;;;;;16.70;90.60;;;;;;4979397;28;20006;-74
2022/08/05 00:37:41;;;;;;;;;;;16.60;90.70;;;;;;4979120;28;20319;-73
2022/08/05 00:40:07;;;;;;;;;;;16.40;91.10;;;;;;4980774;28;19968;-74
2022/08/05 00:42:34;;;;;;;;;;;16.40;91.70;;;;;;4979985;28;19913;-74
2022/08/05 00:45:00;;;;;;;;;;;16.40;92.30;;;;;;4980878;28;19913;-73
2022/08/05 00:47:26;;;;;;;;;;;16.40;91.40;;;;;;4983281;28;19914;-73
2022/08/05 00:49:51;;;;;;;;;;;16.40;91.90;;;;;;4979312;28;19920;-73
2022/08/05 00:52:17;;;;;;;;;;;16.40;91.20;;;;;;4980345;28;19949;-73
2022/08/05 00:54:43;;;;;;;;;;;16.50;91.30;;;;;;4976400;28;20388;-74
2022/08/05 00:57:08;;;;;;;;;;;16.60;91.10;;;;;;4980152;28;20327;-74
2022/08/05 00:59:34;;;;;;;;;;;16.60;91.30;;;;;;4968923;28;19914;-73
2022/08/05 01:01:59;;;;;;;;;;;16.60;90.90;;;;;;4980384;28;20412;-74
2022/08/05 01:04:25;;;;;;;;;;;16.60;91.20;;;;;;4975364;28;20036;-73
2022/08/05 01:06:50;;;;;;;;;;;16.60;91.80;;;;;;4975428;28;20068;-74
2022/08/05 01:09:16;;;;;;;;;;;16.60;92.00;;;;;;4978664;28;19917;-74
2022/08/05 01:11:42;;;;;;;;;;;16.50;91.70;;;;;;4979009;28;19932;-74
2022/08/05 01:14:13;;;;;;;;;;;16.40;91.90;;;;;;4979629;28;19924;-73
2022/08/05 01:16:51;;;;;;;;;;;16.50;92.40;;;;;;4978357;28;20020;-72
2022/08/05 01:19:29;;;;;;;;;;;16.40;92.00;;;;;;4968695;28;19989;-73
2022/08/05 01:22:05;;;;;;;;;;;16.60;91.40;;;;;;4979004;28;20055;-74
2022/08/05 01:24:39;;;;;;;;;;;16.60;90.80;;;;;;4977984;28;19968;-73
2022/08/05 01:27:23;;;;;;;;;;;16.70;90.40;;;;;;4979484;28;19972;-74
2022/08/05 01:29:50;;;;;;;;;;;16.70;90.50;;;;;;4978649;28;19944;-74
2022/08/05 01:32:19;;;;;;;;;;;16.70;90.50;;;;;;4968028;28;20000;-74
2022/08/05 01:34:57;;;;;;;;;;;16.70;90.60;;;;;;4969794;28;20341;-73
2022/08/05 01:37:33;;;;;;;;;;;16.70;90.80;;;;;;4971953;28;19918;-74
2022/08/05 01:39:59;;;;;;;;;;;16.60;90.90;;;;;;4975150;28;19914;-74
2022/08/05 01:42:25;;;;;;;;;;;16.50;91.40;;;;;;4978591;28;20390;-74
2022/08/05 01:44:53;;;;;;;;;;;16.40;92.10;;;;;;4978671;28;19920;-73
2022/08/05 01:47:19;;;;;;;;;;;16.30;91.80;;;;;;4978988;28;20007;-74
2022/08/05 01:49:47;;;;;;;;;;;16.30;92.70;;;;;;4979176;28;20001;-73
2022/08/05 01:52:13;;;;;;;;;;;16.30;92.00;;;;;;4981027;28;20027;-73
2022/08/05 01:54:42;;;;;;;;;;;16.20;92.50;;;;;;4980376;28;19921;-73
2022/08/05 01:57:08;;;;;;;;;;;16.20;92.30;;;;;;4975870;28;19920;-73
2022/08/05 01:59:35;;;;;;;;;;;16.20;92.20;;;;;;4948593;28;19924;-74
2022/08/05 02:02:01;;;;;;;;;;;16.20;91.70;;;;;;4975073;28;19962;-74
2022/08/05 02:04:28;;;;;;;;;;;16.10;92.40;;;;;;4969256;28;19929;-74
2022/08/05 02:06:55;;;;;;;;;;;16.10;92.10;;;;;;4975560;28;20035;-74
2022/08/05 02:09:21;;;;;;;;;;;16.00;92.50;;;;;;4974706;28;19914;-74
2022/08/05 02:11:50;;;;;;;;;;;16.00;92.20;;;;;;4978681;28;20277;-74
2022/08/05 02:14:29;;;;;;;;;;;16.00;91.90;;;;;;4977900;28;20293;-74
2022/08/05 02:16:58;;;;;;;;;;;15.90;92.40;;;;;;4981003;28;20293;-74
2022/08/05 02:19:27;;;;;;;;;;;15.90;92.10;;;;;;4950201;28;19921;-73
2022/08/05 02:22:10;;;;;;;;;;;15.80;92.60;;;;;;4975354;28;19968;-73
2022/08/05 02:24:37;;;;;;;;;;;15.70;93.20;;;;;;4961178;28;20325;-74
2022/08/05 02:27:03;;;;;;;;;;;15.70;93.70;;;;;;4973781;28;20029;-74
2022/08/05 02:29:30;;;;;;;;;;;15.60;94.80;;;;;;4955521;28;19968;-73
2022/08/05 02:31:56;;;;;;;;;;;15.70;94.40;;;;;;4972563;28;20332;-74
2022/08/05 02:34:22;;;;;;;;;;;15.70;93.90;;;;;;4956055;28;19968;-73
2022/08/05 02:36:50;;;;;;;;;;;15.70;93.60;;;;;;4974927;28;20415;-74
2022/08/05 02:39:17;;;;;;;;;;;15.80;93.30;;;;;;4974539;28;20012;-73
2022/08/05 02:41:44;;;;;;;;;;;15.80;93.00;;;;;;4977113;28;20361;-74
2022/08/05 02:44:10;;;;;;;;;;;15.80;93.70;;;;;;4973515;28;19913;-73
2022/08/05 02:46:37;;;;;;;;;;;15.80;93.30;;;;;;4978732;28;19909;-73
2022/08/05 02:49:04;;;;;;;;;;;15.80;93.40;;;;;;4974858;28;19939;-74
2022/08/05 02:51:30;;;;;;;;;;;15.80;92.50;;;;;;4976276;28;19929;-74
2022/08/05 02:53:56;;;;;;;;;;;15.80;92.70;;;;;;4976224;28;19913;-73
2022/08/05 02:56:22;;;;;;;;;;;15.70;94.00;;;;;;4977953;28;19948;-74
2022/08/05 02:58:48;;;;;;;;;;;15.70;93.10;;;;;;4970863;28;19949;-73
2022/08/05 03:01:16;;;;;;;;;;;15.60;94.60;;;;;;4978370;28;20667;-73
2022/08/05 03:03:43;;;;;;;;;;;15.40;94.50;;;;;;4976647;28;19922;-74
2022/08/05 03:06:09;;;;;;;;;;;15.40;94.30;;;;;;4978231;28;20302;-73
2022/08/05 03:08:36;;;;;;;;;;;15.40;94.80;;;;;;4975429;28;19924;-74
2022/08/05 03:11:02;;;;;;;;;;;15.30;94.40;;;;;;4976412;28;19921;-74
2022/08/05 03:13:27;;;;;;;;;;;15.20;95.20;;;;;;4973585;28;20305;-73
2022/08/05 03:15:53;;;;;;;;;;;15.30;94.60;;;;;;4973170;28;19965;-73
2022/08/05 03:18:18;;;;;;;;;;;15.20;95.20;;;;;;4976026;28;19929;-73
2022/08/05 03:20:44;;;;;;;;;;;15.20;93.80;;;;;;4976364;28;19914;-73
2022/08/05 03:23:10;;;;;;;;;;;15.30;93.70;;;;;;4977094;28;20482;-74
2022/08/05 03:25:36;;;;;;;;;;;15.30;94.80;;;;;;4977528;28;19909;-73
2022/08/05 03:28:03;;;;;;;;;;;15.20;94.90;;;;;;4978139;28;19914;-74
2022/08/05 03:30:31;;;;;;;;;;;15.20;95.20;;;;;;4969787;28;19922;-73
2022/08/05 03:32:59;;;;;;;;;;;15.20;94.20;;;;;;4970070;28;20090;-74
2022/08/05 03:35:26;;;;;;;;;;;15.20;95.40;;;;;;4978094;28;19909;-74
2022/08/05 03:37:58;;;;;;;;;;;15.10;94.70;;;;;;4978132;28;20089;-74
2022/08/05 03:40:24;;;;;;;;;;;15.10;95.50;;;;;;4976248;28;19963;-74
2022/08/05 03:42:49;;;;;;;;;;;15.20;95.00;;;;;;4978006;28;19961;-74
2022/08/05 03:45:15;;;;;;;;;;;15.20;95.60;;;;;;4978758;28;19952;-73
2022/08/05 03:47:41;;;;;;;;;;;15.10;96.40;;;;;;4976865;28;20365;-74
2022/08/05 03:50:06;;;;;;;;;;;15.10;96.20;;;;;;4979879;28;19949;-74
2022/08/05 03:52:36;;;;;;;;;;;15.10;97.00;;;;;;4981243;28;19924;-74
2022/08/05 03:55:09;;;;;;;;;;;15.00;98.30;;;;;;4976694;28;19981;-75
2022/08/05 03:57:35;;;;;;;;;;;15.00;98.20;;;;;;4974716;28;20300;-73
2022/08/05 04:00:05;;;;;;;;;;;14.90;99.90;;;;;;4979937;28;19914;-73
2022/08/05 04:02:31;;;;;;;;;;;14.90;99.20;;;;;;4975168;28;19918;-73
2022/08/05 04:04:57;;;;;;;;;;;14.90;99.10;;;;;;4981019;28;20285;-73
2022/08/05 04:07:24;;;;;;;;;;;14.80;99.90;;;;;;4979579;28;20056;-74
2022/08/05 04:09:50;;;;;;;;;;;14.80;99.90;;;;;;4980623;28;19999;-73
2022/08/05 04:12:15;;;;;;;;;;;14.80;99.80;;;;;;4977790;28;20046;-73
2022/08/05 04:14:41;;;;;;;;;;;14.90;99.80;;;;;;4968268;28;19921;-74
2022/08/05 04:17:07;;;;;;;;;;;14.80;99.90;;;;;;4964690;28;19920;-74
2022/08/05 04:19:40;;;;;;;;;;;14.80;99.90;;;;;;4977530;28;19913;-74
2022/08/05 04:22:05;;;;;;;;;;;14.70;99.90;;;;;;4977607;28;19924;-73
2022/08/05 04:24:31;;;;;;;;;;;14.60;99.90;;;;;;4980508;28;19913;-73
2022/08/05 04:26:56;;;;;;;;;;;14.60;99.90;;;;;;4980821;28;19918;-73
2022/08/05 04:29:22;;;;;;;;;;;14.60;99.90;;;;;;4981805;28;19924;-74
2022/08/05 04:31:47;;;;;;;;;;;14.60;99.90;;;;;;4977626;28;19975;-74
2022/08/05 04:34:13;;;;;;;;;;;14.50;99.90;;;;;;4979539;28;19996;-74
2022/08/05 04:36:38;;;;;;;;;;;14.60;99.90;;;;;;4977370;28;19956;-74
2022/08/05 04:39:04;;;;;;;;;;;14.50;99.90;;;;;;4980960;28;20297;-74
2022/08/05 04:41:30;;;;;;;;;;;14.50;99.90;;;;;;4983767;28;20681;-74
2022/08/05 04:43:56;;;;;;;;;;;14.50;99.90;;;;;;4964570;28;20357;-74
2022/08/05 04:46:22;;;;;;;;;;;14.40;99.90;;;;;;4980163;28;19913;-74
2022/08/05 04:48:48;;;;;;;;;;;14.50;99.90;;;;;;4961850;28;19914;-74
2022/08/05 04:51:13;;;;;;;;;;;14.50;99.90;;;;;;4982212;28;20490;-74
2022/08/05 04:53:39;;;;;;;;;;;14.50;99.90;;;;;;4978352;28;19918;-74
2022/08/05 04:56:08;;;;;;;;;;;14.50;99.90;;;;;;4979730;28;20420;-74
2022/08/05 04:58:33;;;;;;;;;;;14.60;99.90;;;;;;4979624;28;20452;-74
2022/08/05 05:00:59;;;;;;;;;;;14.60;99.90;;;;;;4978368;28;19914;-74
2022/08/05 05:03:24;;;;;;;;;;;14.70;99.90;;;;;;4976791;28;19987;-72
2022/08/05 05:05:50;;;;;;;;;;;14.70;99.90;;;;;;4978327;28;20304;-74
2022/08/05 05:08:15;;;;;;;;;;;14.90;99.90;;;;;;4978951;28;19920;-74
2022/08/05 05:10:42;;;;;;;;;;;14.90;99.90;;;;;;4977721;28;19921;-74
2022/08/05 05:13:11;;;;;;;;;;;15.00;99.90;;;;;;4980259;28;19913;-74
2022/08/05 05:15:38;;;;;;;;;;;15.00;99.90;;;;;;4980629;28;19909;-74
2022/08/05 05:18:03;;;;;;;;;;;14.90;99.90;;;;;;4974161;28;20302;-74
2022/08/05 05:20:29;;;;;;;;;;;14.80;99.90;;;;;;4976158;28;19919;-74
2022/08/05 05:22:56;;;;;;;;;;;14.70;99.90;;;;;;4979618;28;19995;-74
2022/08/05 05:25:22;;;;;;;;;;;14.70;99.90;;;;;;4973525;28;19920;-74
2022/08/05 05:27:47;;;;;;;;;;;14.60;99.90;;;;;;4980185;28;19962;-73
2022/08/05 05:30:13;;;;;;;;;;;14.50;99.90;;;;;;4978718;28;20273;-74
2022/08/05 05:32:39;;;;;;;;;;;14.40;99.90;;;;;;4970745;28;20004;-74
2022/08/05 05:35:04;;;;;;;;;;;14.50;99.90;;;;;;4974720;28;20344;-73
2022/08/05 05:37:30;;;;;;;;;;;14.50;99.90;;;;;;4972093;28;19969;-74
2022/08/05 05:39:56;;;;;;;;;;;14.60;99.90;;;;;;4973552;28;19913;-74
2022/08/05 05:42:21;;;;;;;;;;;14.60;99.90;;;;;;4974158;28;19920;-74
2022/08/05 05:44:47;;;;;;;;;;;14.70;99.90;;;;;;4975644;28;19924;-74
2022/08/05 05:47:12;;;;;;;;;;;14.80;99.90;;;;;;4975462;28;19953;-74
2022/08/05 05:49:38;;;;;;;;;;;14.90;99.90;;;;;;4968174;28;19983;-74
2022/08/05 05:52:03;;;;;;;;;;;14.90;99.90;;;;;;4972557;28;19930;-74
2022/08/05 05:54:29;;;;;;;;;;;14.90;99.90;;;;;;4958150;28;19949;-74
2022/08/05 05:56:54;;;;;;;;;;;14.90;99.90;;;;;;4975486;28;19972;-73
2022/08/05 05:59:20;;;;;;;;;;;14.90;99.90;;;;;;4970621;28;19913;-73
2022/08/05 06:01:45;;;;;;;;;;;14.90;99.90;;;;;;4971645;28;19945;-73
2022/08/05 06:04:12;;;;;;;;;;;14.90;99.90;;;;;;4969455;28;19972;-74
2022/08/05 06:06:38;;;;;;;;;;;14.90;99.90;;;;;;4969733;28;19917;-73
2022/08/05 06:09:04;;;;;;;;;;;15.00;99.20;;;;;;4972118;28;20496;-74
2022/08/05 06:11:30;;;;;;;;;;;15.00;99.90;;;;;;4968834;28;19929;-74
2022/08/05 06:13:56;;;;;;;;;;;14.90;99.90;;;;;;4977260;28;20297;-74
2022/08/05 06:16:22;;;;;;;;;;;15.00;99.90;;;;;;4972102;28;19913;-74
2022/08/05 06:18:48;;;;;;;;;;;15.00;98.50;;;;;;4976646;28;20192;-74
2022/08/05 06:21:13;;;;;;;;;;;15.10;99.30;;;;;;4972792;28;20013;-73
2022/08/05 06:23:39;;;;;;;;;;;15.10;99.40;;;;;;4968264;28;19953;-73
2022/08/05 06:26:04;;;;;;;;;;;15.10;98.90;;;;;;4962188;28;20071;-75
2022/08/05 06:28:30;;;;;;;;;;;15.20;98.40;;;;;;4955859;28;19977;-74
2022/08/05 06:30:55;;;;;;;;;;;15.30;96.40;;;;;;4949022;28;20452;-74
2022/08/05 06:33:21;;;;;;;;;;;15.30;97.50;;;;;;4975850;28;20320;-73
2022/08/05 06:35:46;;;;;;;;;;;15.40;97.20;;;;;;4972938;28;20027;-73
2022/08/05 06:38:12;;;;;;;;;;;15.30;98.60;;;;;;4959490;28;20064;-73
2022/08/05 06:40:38;;;;;;;;;;;15.30;97.70;;;;;;4976177;28;20377;-73
2022/08/05 06:43:04;;;;;;;;;;;15.30;96.90;;;;;;4967461;28;19972;-74
2022/08/05 06:45:30;;;;;;;;;;;15.30;97.80;;;;;;4975268;28;20380;-73
2022/08/05 06:47:55;;;;;;;;;;;15.40;95.90;;;;;;4973897;28;19921;-73
2022/08/05 06:50:21;;;;;;;;;;;15.50;96.70;;;;;;4984850;28;20309;-73
2022/08/05 06:52:46;;;;;;;;;;;15.50;96.60;;;;;;4972443;28;20246;-73
2022/08/05 06:55:12;;;;;;;;;;;15.60;95.60;;;;;;4975838;28;20015;-73
2022/08/05 06:57:37;;;;;;;;;;;15.70;95.40;;;;;;4975960;28;19929;-73
2022/08/05 07:00:03;;;;;;;;;;;15.70;94.50;;;;;;4977433;28;19968;-76
2022/08/05 07:02:29;;;;;;;;;;;15.80;93.70;;;;;;4952617;28;19940;-80
2022/08/05 07:04:54;;;;;;;;;;;15.90;92.80;;;;;;4976917;28;20481;-80
2022/08/05 07:07:20;;;;;;;;;;;15.90;93.40;;;;;;4977649;28;19964;-80
2022/08/05 07:09:45;;;;;;;;;;;16.10;91.10;;;;;;4977375;28;19920;-80
2022/08/05 07:16:48;;;;;;;;;;;16.10;90.00;;;;;;4961807;28;19929;-78
2022/08/05 07:17:41;;;;;;;;;;;16.20;90.40;;;;;;4980496;28;20008;-78
2022/08/05 07:20:07;;;;;;;;;;;16.30;89.50;;;;;;4970121;28;19914;-78
2022/08/05 07:22:32;;;;;;;;;;;16.30;89.90;;;;;;4976338;28;19913;-84
2022/08/05 07:24:59;;;;;;;;;;;16.40;88.00;;;;;;4970198;28;19929;-79
2022/08/05 07:27:24;;;;;;;;;;;16.50;88.60;;;;;;4970612;28;19953;-77
2022/08/05 07:29:50;;;;;;;;;;;16.60;88.60;;;;;;4969799;28;20008;-84
2022/08/05 07:32:15;;;;;;;;;;;16.60;86.50;;;;;;4974609;28;19936;-76
2022/08/05 07:34:41;;;;;;;;;;;16.70;88.00;;;;;;4976314;28;19920;-75
2022/08/05 07:37:06;;;;;;;;;;;16.80;87.00;;;;;;4974756;28;19918;-72
2022/08/05 07:39:33;;;;;;;;;;;16.80;87.80;;;;;;4956849;28;19917;-75
2022/08/05 07:41:58;;;;;;;;;;;16.90;85.90;;;;;;4971749;28;19960;-76
2022/08/05 07:44:24;;;;;;;;;;;16.90;84.10;;;;;;4976376;28;20064;-82
2022/08/05 07:46:49;;;;;;;;;;;17.00;83.10;;;;;;4973652;28;19956;-74
2022/08/05 07:49:15;;;;;;;;;;;17.10;83.00;;;;;;4972647;28;20063;-74
2022/08/05 07:51:40;;;;;;;;;;;17.30;84.40;;;;;;4976130;28;19921;-73
2022/08/05 07:54:06;;;;;;;;;;;18.40;82.00;;;;;;4953386;28;19922;-71
2022/08/05 07:56:32;;;;;;;;;;;21.70;71.90;;;;;;4965286;28;20357;-72
2022/08/05 07:58:57;;;;;;;;;;;26.10;57.70;;;;;;4965862;28;19924;-72
2022/08/05 08:01:24;;;;;;;;;;;29.90;45.30;;;;;;4963825;28;19913;-71
2022/08/05 08:03:50;;;;;;;;;;;32.60;36.00;;;;;;4966402;28;19928;-73
2022/08/05 08:06:16;;;;;;;;;;;34.10;32.20;;;;;;4967345;28;19913;-73
2022/08/05 08:08:41;;;;;;;;;;;35.60;31.10;;;;;;4963362;28;21253;-72
2022/08/05 08:11:07;;;;;;;;;;;36.30;28.80;;;;;;4967025;28;20357;-72
2022/08/05 08:13:32;;;;;;;;;;;37.10;27.90;;;;;;4971567;28;20593;-72
2022/08/05 08:15:58;;;;;;;;;;;37.60;27.20;;;;;;4978166;28;19914;-73
2022/08/05 08:18:23;;;;;;;;;;;38.30;26.30;;;;;;4968901;28;20093;-73
2022/08/05 08:20:50;;;;;;;;;;;39.00;26.00;;;;;;4967635;28;20041;-73
2022/08/05 08:23:17;;;;;;;;;;;39.00;25.40;;;;;;4966335;28;19913;-73
2022/08/05 08:25:43;;;;;;;;;;;39.10;25.10;;;;;;4962609;28;19999;-73
2022/08/05 08:28:08;;;;;;;;;;;39.20;25.60;;;;;;4970281;28;19917;-73
2022/08/05 08:30:34;;;;;;;;;;;39.20;25.80;;;;;;4972209;28;19963;-73
2022/08/05 08:33:00;;;;;;;;;;;39.30;24.30;;;;;;4963114;28;19932;-73
2022/08/05 08:35:25;;;;;;;;;;;39.90;25.70;;;;;;4978634;28;19959;-76
2022/08/05 08:37:51;;;;;;;;;;;39.00;24.80;;;;;;4980407;28;19913;-73
2022/08/05 08:40:16;;;;;;;;;;;38.80;25.60;;;;;;4971098;28;20299;-71
2022/08/05 08:42:45;;;;;;;;;;;40.00;24.80;;;;;;4976249;28;19914;-71
2022/08/05 08:45:11;;;;;;;;;;;39.40;26.20;;;;;;4978634;28;19924;-71
2022/08/05 08:47:37;;;;;;;;;;;39.40;25.10;;;;;;4978422;28;19914;-71
2022/08/05 08:50:02;;;;;;;;;;;39.70;25.70;;;;;;4969002;28;20001;-70
2022/08/05 08:52:29;;;;;;;;;;;39.80;25.40;;;;;;4972853;28;19926;-71
2022/08/05 08:54:55;;;;;;;;;;;39.20;23.50;;;;;;4971504;28;20365;-71
2022/08/05 08:57:21;;;;;;;;;;;38.70;25.60;;;;;;4972903;28;20369;-70
2022/08/05 08:59:47;;;;;;;;;;;39.20;23.70;;;;;;4972238;28;19921;-71
2022/08/05 09:02:13;;;;;;;;;;;38.00;24.80;;;;;;4973016;28;19921;-71
2022/08/05 09:04:39;;;;;;;;;;;38.00;25.80;;;;;;4967417;28;19922;-71
2022/08/05 09:07:05;;;;;;;;;;;38.10;24.60;;;;;;4962975;28;20297;-71
2022/08/05 09:09:34;;;;;;;;;;;37.70;25.50;;;;;;4965215;28;20578;-73
2022/08/05 09:12:01;;;;;;;;;;;37.50;25.90;;;;;;4970298;28;19968;-72
2022/08/05 09:14:26;;;;;;;;;;;37.70;24.70;;;;;;4961593;28;20285;-73
2022/08/05 09:16:52;;;;;;;3.05;0.30;;;37.20;25.30;;;;;;4973104;28;19974;-73
2022/08/05 09:19:18;;;;;;;5.20;0.40;;;36.40;24.90;;;;;;4976766;28;20057;-74
2022/08/05 09:21:44;;;;;;;0.70;0.10;;;36.60;24.70;;;;;;4971438;28;20315;-73
2022/08/05 09:24:11;;;;;;;;;;;36.80;25.20;;;;;;4978190;28;19913;-76
2022/08/05 09:26:37;;;;;;;;;;;36.00;25.90;;;;;;4969586;28;20292;-75
2022/08/05 09:29:07;;;;;;;;;;;36.70;26.50;;;;;;4978665;28;19920;-70
2022/08/05 09:31:33;;;;;;;;;;;37.00;25.30;;;;;;4977282;28;19922;-73
2022/08/05 09:34:03;;;;;;;;;;;37.10;25.20;;;;;;4972278;28;20281;-73
2022/08/05 09:36:41;;;;;;;;;;;36.50;25.00;;;;;;4978136;28;19918;-73
2022/08/05 09:39:07;;;;;;;;;;;36.80;24.90;;;;;;4952842;28;20277;-73
2022/08/05 09:41:33;;;;;;;;;;;36.60;25.00;;;;;;4975587;28;19937;-73
2022/08/05 09:43:59;;;;;;;;;;;35.50;24.80;;;;;;4977186;28;19913;-73
2022/08/05 09:46:26;;;;;;;;;;;35.30;25.50;;;;;;4957835;28;20028;-73
2022/08/05 09:48:53;;;;;;;;;;;34.80;26.00;;;;;;4972739;28;19944;-73
2022/08/05 09:51:30;;;;;;;;;;;34.90;27.20;;;;;;4978727;28;19925;-73
2022/08/05 09:53:55;;;;;;;;;;;34.30;25.50;;;;;;4979529;28;20867;-74
2022/08/05 09:56:25;;;;;;;;;;;34.90;26.90;;;;;;4980579;28;19914;-72
2022/08/05 09:58:56;;;;;;;;;;;35.00;25.70;;;;;;4978892;28;19918;-72
2022/08/05 10:01:22;;;;;;;;;;;34.40;26.70;;;;;;4981423;28;19925;-73
2022/08/05 10:03:54;;;;;;;;;;;34.60;25.90;;;;;;4960224;28;20112;-73
2022/08/05 10:06:20;;;;;;;;;;;34.70;25.70;;;;;;4983793;28;20452;-76
2022/08/05 10:08:45;;;;;;;;;;;34.90;26.90;;;;;;4976341;28;19913;-73
2022/08/05 10:11:14;;;;;;;;;;;35.00;25.00;;;;;;4972934;28;19922;-72
2022/08/05 10:13:40;;;;;;;;;;;34.90;25.60;;;;;;4968493;28;20008;-72
2022/08/05 10:16:06;;;;;;;;;;;35.00;26.60;;;;;;4972751;28;20558;-72
2022/08/05 10:18:32;;;;;;;;;;;34.30;26.40;;;;;;4972770;28;19913;-73
2022/08/05 10:21:04;;;;;;;;;;;34.40;27.00;;;;;;4965538;28;20342;-73
2022/08/05 10:23:31;;;;;;;;;;;34.10;25.40;;;;;;4977548;28;20435;-73
2022/08/05 10:25:58;;;;;;;;;;;34.10;27.00;;;;;;4969182;28;19921;-72
2022/08/05 10:28:23;;;;;;;;;;;33.90;27.50;;;;;;4966956;28;20549;-72
2022/08/05 10:30:50;;;;;;;;;;;34.10;26.50;;;;;;4972399;28;19921;-73
2022/08/05 10:33:15;;;;;;;;;;;34.10;26.80;;;;;;4976166;28;19960;-73
2022/08/05 10:35:41;;;;;;;;;;;33.80;27.40;;;;;;4978263;28;19967;-73
2022/08/05 10:38:07;;;;;;;;;;;33.70;28.80;;;;;;4953377;28;20448;-73
2022/08/05 10:40:38;;;;;;;;;;;34.30;27.70;;;;;;4976550;28;19917;-73
2022/08/05 10:43:16;;;;;;;;;;;34.20;27.10;;;;;;4978157;28;19948;-73
2022/08/05 10:45:41;;;;;;;;;;;34.40;25.80;;;;;;4977918;28;19922;-73
2022/08/05 10:48:33;;;;;;;;;;;34.40;25.70;;;;;;4960101;28;19917;-73
2022/08/05 10:51:00;;;;;;;;;;;34.30;27.20;;;;;;4964352;28;19917;-73
2022/08/05 10:53:35;;;;;;;1.05;0.30;;;34.10;26.00;;;;;;4976704;28;19916;-74
2022/08/05 10:56:06;;;;;;;2.05;0.40;;;33.60;26.10;;;;;;4969724;28;20104;-73
2022/08/05 10:58:33;;;;;;;1.77;0.47;;;33.80;26.50;;;;;;4966997;28;20110;-73
2022/08/05 11:01:03;;;;;;;3.33;0.45;;;33.80;26.40;;;;;;4977321;28;20054;-72
2022/08/05 11:03:29;;;;;;;2.10;0.47;;;33.90;25.90;;;;;;4970888;28;20057;-73
2022/08/05 11:06:08;;;;;;;4.38;0.40;;;33.80;26.20;;;;;;4971195;28;20034;-73
2022/08/05 11:08:34;;;;;;;6.07;0.57;;;33.40;26.50;;;;;;4973996;28;20512;-73
2022/08/05 11:11:32;;;;;;;5.85;0.50;;;33.00;27.20;;;;;;4976077;28;20042;-72
2022/08/05 11:13:59;;;;;;;4.85;0.60;;;33.00;27.90;;;;;;4977643;28;20040;-73
2022/08/05 11:16:25;;;;;;;2.58;0.40;;;33.00;28.50;;;;;;4978281;28;20128;-73
2022/08/05 11:19:29;;;;;;;1.70;0.20;;;32.90;27.30;;;;;;4974720;28;20037;-73
2022/08/05 11:22:15;;;;;;;5.28;0.50;;;32.70;27.50;;;;;;4970748;28;20106;-73
2022/08/05 11:24:43;;;;;;;2.33;0.28;;;32.50;29.40;;;;;;4962470;28;20035;-73
2022/08/05 11:27:29;;;;;;;2.15;0.40;;;31.60;29.40;;;;;;4971940;28;20103;-73
2022/08/05 11:29:59;;;;;;;2.08;0.50;;;30.00;29.40;;;;;;4961425;28;20445;-73
2022/08/05 11:32:29;;;;;;;6.25;1.13;;;30.30;30.10;;;;;;4976141;28;20214;-73
2022/08/05 11:34:56;;;;;;;3.40;0.40;;;30.90;29.70;;;;;;4979500;28;20265;-73
2022/08/05 11:37:53;;;;;;;4.32;0.40;;;31.20;29.70;;;;;;4955606;28;20426;-72
2022/08/05 11:40:19;;;;;;;2.33;0.60;;;30.80;30.30;;;;;;4970796;28;20030;-73
2022/08/05 11:42:45;;;;;;;2.85;0.88;;;30.50;32.00;;;;;;4978032;28;20027;-72
2022/08/05 11:45:11;;;;;;;5.70;0.80;;;30.40;30.40;;;;;;4978353;28;20026;-73
2022/08/05 11:47:37;;;;;;;1.55;0.60;;;30.00;31.30;;;;;;4971374;28;20026;-73
2022/08/05 11:50:04;;;;;;;4.82;0.55;;;29.80;31.00;;;;;;4972143;28;20053;-72
2022/08/05 11:52:30;;;;;;;4.35;0.45;;;29.80;30.90;;;;;;4974391;28;20049;-72
2022/08/05 11:54:57;;;;;;;2.60;0.55;;;29.50;29.30;;;;;;4972983;28;20026;-73
2022/08/05 11:57:30;;;;;;;1.80;0.30;;;29.00;30.90;;;;;;4974682;28;20325;-73
2022/08/05 11:59:56;;;;;;;;;;;28.90;33.00;;;;;;4956430;28;20024;-73
2022/08/05 12:02:26;;;;;;;;;;;29.00;31.70;;;;;;4973834;28;20180;-73
2022/08/05 12:04:52;;;;;;;;;;;28.30;31.20;;;;;;4976067;28;19940;-77
2022/08/05 12:07:18;;;;;;;;;;;27.80;34.30;;;;;;4971364;28;20253;-73
2022/08/05 12:09:43;;;;;;;;;;;27.80;33.20;;;;;;4967941;28;19917;-73
2022/08/05 12:12:09;;;;;;;;;;;27.90;34.30;;;;;;4982017;28;19918;-73
2022/08/05 12:14:35;;;;;;;;;;;27.90;31.60;;;;;;4981049;28;19917;-73
2022/08/05 12:17:05;;;;;;;;;;;27.60;32.40;;;;;;4981815;28;19913;-73
2022/08/05 12:19:39;;;;;;;;;;;27.80;34.60;;;;;;4977634;28;19914;-73
2022/08/05 12:22:05;;;;;;;;;;;27.80;32.20;;;;;;4968476;28;20437;-73
2022/08/05 12:24:30;;;;;;;;;;;28.00;34.20;;;;;;4965051;28;19914;-73
2022/08/05 12:26:56;;;;;;;;;;;28.20;32.50;;;;;;4972609;28;19920;-74
2022/08/05 12:29:22;;;;;;;;;;;28.30;31.90;;;;;;4965738;28;20401;-73
2022/08/05 12:31:48;;;;;;;;;;;28.00;34.50;;;;;;4965313;28;20013;-73
2022/08/05 12:34:14;;;;;;;;;;;28.20;33.90;;;;;;4972298;28;19913;-72
2022/08/05 12:36:40;;;;;;;;;;;28.30;34.10;;;;;;4967710;28;20021;-73
2022/08/05 12:39:06;;;;;;;;;;;28.40;32.40;;;;;;4977287;28;20329;-73
2022/08/05 12:41:32;;;;;;;;;;;28.40;32.00;;;;;;4980705;28;19914;-73
2022/08/05 12:44:00;;;;;;;;;;;28.40;33.10;;;;;;4981887;28;19941;-73
2022/08/05 12:46:27;;;;;;;;;;;28.40;33.40;;;;;;4971589;28;19913;-73
2022/08/05 12:48:56;;;;;;;;;;;28.20;31.90;;;;;;4975425;28;19941;-73
2022/08/05 12:51:21;;;;;;;;;;;28.10;30.10;;;;;;4980371;28;20451;-73
2022/08/05 12:53:47;;;;;;;;;;;27.90;33.50;;;;;;4973828;28;19949;-73
2022/08/05 12:56:17;;;;;;;;;;;27.80;32.90;;;;;;4963383;28;19913;-73
2022/08/05 12:58:42;;;;;;;;;;;28.10;30.00;;;;;;4977090;28;19917;-73
2022/08/05 13:01:08;;;;;;;;;;;28.00;31.00;;;;;;4980283;28;19976;-73
2022/08/05 13:03:37;;;;;;;;;;;27.70;35.70;;;;;;4968269;28;20164;-73
2022/08/05 13:06:06;;;;;;;;;;;28.00;32.10;;;;;;4630615;28;10000689;-73
2022/08/05 13:08:31;;;;;;;;;;;28.00;33.70;;;;;;4988540;28;19909;-73
2022/08/05 13:11:00;;;;;;;;;;;28.20;31.90;;;;;;4968777;28;19933;-73
2022/08/05 13:13:26;;;;;;;;;;;28.10;32.60;;;;;;4973800;28;20521;-73
2022/08/05 13:15:53;;;;;;;;;;;28.20;33.10;;;;;;4978255;28;20401;-73
2022/08/05 13:18:18;;;;;;;;;;;28.50;34.10;;;;;;4961379;28;20814;-73
2022/08/05 13:20:44;;;;;;;;;;;28.60;32.20;;;;;;4972182;28;19960;-73
2022/08/05 13:23:10;;;;;;;;;;;28.40;31.00;;;;;;4978359;28;20020;-72
2022/08/05 13:25:36;;;;;;;;;;;28.20;32.80;;;;;;4980202;28;20420;-74
2022/08/05 13:28:03;;;;;;;;;;;27.80;31.10;;;;;;4976443;28;19920;-73
2022/08/05 13:30:29;;;;;;;;;;;28.00;32.90;;;;;;4975784;28;19914;-73
2022/08/05 13:32:54;;;;;;;;;;;28.00;34.00;;;;;;4970674;28;19921;-73
2022/08/05 13:35:20;;;;;;;;;;;27.90;30.90;;;;;;4949523;28;20015;-73
2022/08/05 13:37:46;;;;;;;;;;;27.90;31.70;;;;;;4976294;28;19959;-73
2022/08/05 13:40:12;;;;;;;;;;;27.90;32.10;;;;;;4972986;28;20258;-73
2022/08/05 13:42:38;;;;;;;;;;;27.90;32.20;;;;;;4976362;28;20012;-73
2022/08/05 13:45:05;;;;;;;;;;;28.00;32.50;;;;;;4953734;28;20587;-73
2022/08/05 13:47:30;;;;;;;;;;;27.90;32.90;;;;;;4983262;28;19925;-73
2022/08/05 13:49:56;;;;;;;;;;;28.10;33.80;;;;;;4976909;28;20341;-73
2022/08/05 13:52:22;;;;;;;;;;;28.10;33.50;;;;;;4971890;28;19976;-73
2022/08/05 13:54:48;;;;;;;;;;;28.10;31.50;;;;;;4972038;28;19961;-72
2022/08/05 13:57:14;;;;;;;;;;;28.10;31.60;;;;;;4978220;28;20297;-73
2022/08/05 13:59:40;;;;;;;;;;;28.30;31.50;;;;;;4971307;28;19914;-73
2022/08/05 14:02:07;;;;;;;;;;;28.10;29.70;;;;;;4979560;28;19913;-72
2022/08/05 14:07:19;;;;;;;;;;;27.70;32.10;;;;;;4969121;28;19972;-73
2022/08/05 14:09:44;;;;;;;;;;;27.40;30.90;;;;;;4971277;28;20108;-73
2022/08/05 14:12:10;;;;;;;4.00;0.60;;;27.20;32.30;;;;;;4953458;28;19921;-73
2022/08/05 14:14:36;;;;;;;;;;;26.50;33.30;;;;;;4972572;28;20008;-73